Aledo, IL

1:00 AM CST on January 27, 2015 (GMT -0600)
Quad-City International | Change Station
CLOSE
Current Station
Airport
Location: Moline,
Elevation: 594 ft
Nearby Weather Stations

Elev 594 ft 41.45 °N, 90.51 °W | Updated 8 minutes ago

Overcast
Overcast
32 °F
Feels Like 26 °F
N
7
Wind Variable Wind from NW

Today
High -- | Low -- °F
--% Chance of Precip.
Yesterday
High -- | Low -- °F
Precip. -- in
7:18 AM 5:13 PM
Waxing Crescent, 51% visible
Pressure 29.95 in
Visibility 6.0 miles
Clouds Scattered Clouds 3200 ft
Mostly Cloudy 4500 ft
Windchill 26 °F
Dew Point 30 °F
Humidity 92%
Rainfall 0.00 in
Snow Depth Not available.
UV 0 out of 12
Pollen .10 out of 12
Air Quality Not available.
Flu Activity Not available.
METAR KMLI 270652Z AUTO 31006KT 6SM BR SCT032 BKN045 00/M01 A2993 RMK AO2 SLP141 T00001011

More Conditions Fewer Conditions

Pressure 29.95 in
Visibility 6.0 miles
Clouds Scattered Clouds 3200 ft
Mostly Cloudy 4500 ft
Windchill 26 °F
Dew Point 30 °F
Humidity 92%
Rainfall 0.00 in
Snow Depth Not available.
UV 0 out of 12
Pollen .10 out of 12
Air Quality Not available.
Flu Activity Not available.
METAR KMLI 270652Z AUTO 31006KT 6SM BR SCT032 BKN045 00/M01 A2993 RMK AO2 SLP141 T00001011

More Conditions Fewer Conditions

10-Day Weather Forecast

Almanac

Astronomy

Jan. 27, 2015 Rise Set
Actual Time
Civil Twilight
Nautical Twilight
Astronomical Twilight
Moon
Length of Visible Light
Length of Day
Tomorrow will be .
, % of the Moon is Illuminated

Today's Extremes

State Highs State Lows

Community

WunderPhotos

Upload Photos

1,790,544 photos uploaded!

WunderBlogs® & News

Nearby

Air Quality

  Air Quality AQ Index Pollutant
Not available.

Snow Depth

Station Depth Elevation

Earthquake Activity

City Distance Mag. Time & Date
Minimum magnitude displayed is 2.5.

Coastal Water Temperatures

Place Temperature

Nearby Weather Stations